createdAt,value
2023-03-07T00:02:16.210Z,1.50
2023-03-07T00:07:19.165Z,2.83
2023-03-07T00:12:23.384Z,2.63
2023-03-07T00:17:26.348Z,2.03
2023-03-07T00:22:29.158Z,2.00
2023-03-07T00:27:34.675Z,3.03
2023-03-07T00:32:37.535Z,2.95
2023-03-07T00:37:40.432Z,1.65
2023-03-07T00:42:44.617Z,1.35
2023-03-07T00:47:47.436Z,1.42
2023-03-07T00:52:50.284Z,1.30
2023-03-07T00:57:54.468Z,2.72
2023-03-07T01:02:58.126Z,1.85
2023-03-07T01:08:01.126Z,1.85
2023-03-07T01:13:05.829Z,1.13
2023-03-07T01:18:11.029Z,1.60
2023-03-07T01:23:14.050Z,1.35
2023-03-07T01:28:18.216Z,1.58
2023-03-07T01:33:21.073Z,0.90
2023-03-07T01:38:23.981Z,2.10
2023-03-07T01:43:30.585Z,1.63
2023-03-07T01:48:33.637Z,1.60
2023-03-07T01:53:36.510Z,1.80
2023-03-07T01:58:41.012Z,1.48
2023-03-07T02:03:48.130Z,1.58
2023-03-07T02:08:52.161Z,1.80
2023-03-07T02:13:56.354Z,1.50
2023-03-07T02:18:59.235Z,1.25
2023-03-07T02:24:09.128Z,1.20
2023-03-07T02:29:14.108Z,1.38
2023-03-07T02:34:20.021Z,1.45
2023-03-07T02:39:24.638Z,1.40
2023-03-07T02:44:28.834Z,1.70
2023-03-07T02:49:31.819Z,1.30
2023-03-07T02:54:34.670Z,1.42
2023-03-07T02:59:38.885Z,1.15
2023-03-07T03:04:41.753Z,1.90
2023-03-07T03:09:44.617Z,1.10
2023-03-07T03:14:48.941Z,2.25
2023-03-07T03:19:51.841Z,1.33
2023-03-07T03:24:54.667Z,1.52
2023-03-07T03:29:58.838Z,1.80
2023-03-07T03:35:01.726Z,1.48
2023-03-07T03:40:14.085Z,1.58
2023-03-07T03:45:19.443Z,2.50
2023-03-07T03:50:22.259Z,1.48
2023-03-07T03:55:25.059Z,1.92
2023-03-07T04:00:29.346Z,1.05
2023-03-07T04:05:34.391Z,2.05
2023-03-07T04:10:37.191Z,1.35
2023-03-07T04:15:41.313Z,1.52
2023-03-07T04:20:45.863Z,1.70
2023-03-07T04:25:49.263Z,2.20
2023-03-07T04:30:53.490Z,1.27
2023-03-07T04:35:56.353Z,1.58
2023-03-07T04:40:59.257Z,1.92
2023-03-07T04:46:03.917Z,1.42
2023-03-07T04:51:07.528Z,1.88
2023-03-07T04:56:11.253Z,1.33
2023-03-07T05:01:15.570Z,1.15
2023-03-07T05:06:18.454Z,1.20
2023-03-07T05:11:21.291Z,1.52
2023-03-07T05:16:25.481Z,1.58
2023-03-07T05:21:28.306Z,1.85
2023-03-07T05:26:31.202Z,2.67
2023-03-07T05:31:36.237Z,2.40
2023-03-07T05:36:39.124Z,1.30
2023-03-07T05:41:41.940Z,1.20
2023-03-07T05:46:46.113Z,1.60
2023-03-07T05:51:49.019Z,1.30
2023-03-07T05:56:52.045Z,1.30
2023-03-07T06:01:56.193Z,1.10
2023-03-07T06:06:59.774Z,1.00
2023-03-07T06:12:02.674Z,1.15
2023-03-07T06:17:07.156Z,1.23
2023-03-07T06:22:09.969Z,1.95
2023-03-07T06:27:12.816Z,3.10
2023-03-07T06:32:17.047Z,2.67
2023-03-07T06:37:19.901Z,2.28
2023-03-07T06:42:22.725Z,4.22
2023-03-07T06:47:26.931Z,3.30
2023-03-07T06:52:29.752Z,2.13
2023-03-07T06:57:33.917Z,6.22
2023-03-07T07:02:38.307Z,3.60
2023-03-07T07:07:41.218Z,3.67
2023-03-07T07:12:44.174Z,4.18
2023-03-07T07:17:48.301Z,5.75
2023-03-07T07:22:51.248Z,4.55
2023-03-07T07:27:54.070Z,3.58
2023-03-07T07:32:58.308Z,5.60
2023-03-07T07:38:01.280Z,3.25
2023-03-07T07:43:04.231Z,2.67
2023-03-07T07:48:08.486Z,2.92
2023-03-07T07:53:11.483Z,3.08
2023-03-07T07:58:14.317Z,4.60
2023-03-07T08:03:18.643Z,3.13
2023-03-07T08:08:21.720Z,3.95
2023-03-07T08:13:24.594Z,2.85
2023-03-07T08:18:28.805Z,3.08
2023-03-07T08:23:31.641Z,2.00
2023-03-07T08:28:34.525Z,2.33
2023-03-07T08:33:39.312Z,2.10
2023-03-07T08:38:42.143Z,2.10
2023-03-07T08:43:44.986Z,4.40
2023-03-07T08:48:49.151Z,2.90
2023-03-07T08:53:52.040Z,2.00
2023-03-07T08:58:55.139Z,2.08
2023-03-07T09:03:59.348Z,2.83
2023-03-07T09:09:02.174Z,4.50
2023-03-07T09:14:05.011Z,2.15
2023-03-07T09:19:09.216Z,1.52
2023-03-07T09:24:12.059Z,2.35
2023-03-07T09:29:14.887Z,3.20
2023-03-07T09:34:19.103Z,1.90
2023-03-07T09:39:22.014Z,2.00
2023-03-07T09:44:56.052Z,1.85
2023-03-07T09:50:02.127Z,5.00
2023-03-07T09:55:10.468Z,2.45
2023-03-07T10:00:21.466Z,2.58
2023-03-07T10:05:32.594Z,1.85
2023-03-07T10:10:40.699Z,2.85
2023-03-07T10:15:46.685Z,2.15
2023-03-07T10:20:53.954Z,2.25
2023-03-07T10:26:02.789Z,2.08
2023-03-07T10:31:17.104Z,2.65
2023-03-07T10:36:23.056Z,2.83
2023-03-07T10:41:26.065Z,1.60
2023-03-07T10:46:30.921Z,1.55
2023-03-07T10:51:51.657Z,1.70
2023-03-07T10:57:09.356Z,1.98
2023-03-07T11:02:33.534Z,2.65
2023-03-07T11:07:37.971Z,1.65
2023-03-07T11:12:46.955Z,1.60
2023-03-07T11:17:50.798Z,1.40
2023-03-07T11:23:15.833Z,1.85
2023-03-07T11:28:28.567Z,2.10
2023-03-07T11:33:58.699Z,2.47
2023-03-07T11:39:11.241Z,1.80
2023-03-07T11:44:26.808Z,2.08
2023-03-07T11:49:44.284Z,1.75
2023-03-07T11:54:58.439Z,2.13
2023-03-07T12:00:18.762Z,1.33
2023-03-07T12:05:52.924Z,1.30
2023-03-07T12:11:08.538Z,1.67
2023-03-07T12:16:24.107Z,1.30
2023-03-07T12:21:43.554Z,1.90
2023-03-07T12:26:54.568Z,1.20
2023-03-07T12:32:00.834Z,1.40
2023-03-07T12:37:07.880Z,1.42
2023-03-07T12:42:18.593Z,1.50
2023-03-07T12:47:28.443Z,1.42
2023-03-07T12:52:39.965Z,1.73
2023-03-07T12:57:50.818Z,1.60
2023-03-07T13:03:01.562Z,1.17
2023-03-07T13:08:06.719Z,1.30
2023-03-07T13:13:43.306Z,1.85
2023-03-07T13:18:47.485Z,1.75
2023-03-07T13:23:50.499Z,2.00
2023-03-07T13:28:53.526Z,1.40
2023-03-07T13:33:58.073Z,1.77
2023-03-07T13:39:01.129Z,1.63
2023-03-07T13:44:04.626Z,1.27
2023-03-07T13:49:09.106Z,1.20
2023-03-07T13:54:14.734Z,1.58
2023-03-07T13:59:28.128Z,2.42
2023-03-07T14:04:44.774Z,2.20
2023-03-07T14:09:50.810Z,1.70
2023-03-07T14:15:07.896Z,1.15
2023-03-07T14:20:19.882Z,1.67
2023-03-07T14:25:25.302Z,1.20
2023-03-07T14:30:30.704Z,1.35
2023-03-07T14:35:37.235Z,1.90
2023-03-07T14:40:53.200Z,2.95
2023-03-07T14:46:05.468Z,2.28
2023-03-07T14:51:15.162Z,3.55
2023-03-07T14:56:23.366Z,2.95
2023-03-07T15:01:31.623Z,2.53
2023-03-07T15:06:44.074Z,3.53
2023-03-07T15:11:55.004Z,3.80
2023-03-07T15:17:03.108Z,2.92
2023-03-07T15:22:15.081Z,4.72
2023-03-07T15:27:23.093Z,5.78
2023-03-07T15:32:35.924Z,3.50
2023-03-07T15:37:52.687Z,3.60
2023-03-07T15:42:57.068Z,3.22
2023-03-07T15:48:03.423Z,5.43
2023-03-07T15:53:10.387Z,2.55
2023-03-07T15:58:15.511Z,3.88
2023-03-07T16:03:25.875Z,4.10
2023-03-07T16:08:30.243Z,2.10
2023-03-07T16:13:38.452Z,4.00
2023-03-07T16:18:41.934Z,4.47
2023-03-07T16:23:46.928Z,4.45
2023-03-07T16:28:50.210Z,3.38
2023-03-07T16:33:54.452Z,4.68
2023-03-07T16:38:58.627Z,11.05
2023-03-07T16:44:02.611Z,12.98
2023-03-07T16:49:05.449Z,6.15
2023-03-07T16:54:09.846Z,6.72
2023-03-07T16:59:15.341Z,7.70
2023-03-07T17:04:19.018Z,4.38
2023-03-07T17:09:23.180Z,5.25
2023-03-07T17:14:26.126Z,6.50
2023-03-07T17:19:30.615Z,4.63
2023-03-07T17:24:34.796Z,6.07
2023-03-07T17:29:41.836Z,8.15
2023-03-07T17:34:44.719Z,5.28
2023-03-07T17:39:48.890Z,4.95
2023-03-07T17:44:51.713Z,4.32
2023-03-07T17:49:54.546Z,5.90
2023-03-07T17:54:58.761Z,4.82
2023-03-07T18:00:01.609Z,4.18
2023-03-07T18:05:04.623Z,5.07
2023-03-07T18:10:10.791Z,6.90
2023-03-07T18:15:16.435Z,5.68
2023-03-07T18:20:21.422Z,5.40
2023-03-07T18:25:25.879Z,4.45
2023-03-07T18:30:29.207Z,6.00
2023-03-07T18:35:33.200Z,5.15
2023-03-07T18:40:37.426Z,6.00
2023-03-07T18:45:43.414Z,6.47
2023-03-07T18:50:55.489Z,5.72
2023-03-07T18:56:03.586Z,6.10
2023-03-07T19:01:14.660Z,4.82
2023-03-07T19:06:19.616Z,3.70
2023-03-07T19:11:23.786Z,4.18
2023-03-07T19:16:28.550Z,4.32
2023-03-07T19:21:32.170Z,3.60
2023-03-07T19:26:36.374Z,3.22
2023-03-07T19:31:39.282Z,2.58
2023-03-07T19:36:42.617Z,5.85
2023-03-07T19:41:47.985Z,4.20
2023-03-07T19:46:50.860Z,12.85
2023-03-07T19:51:53.844Z,54.00
2023-03-07T19:56:58.232Z,71.47
2023-03-07T20:02:01.045Z,64.53
2023-03-07T20:07:03.912Z,53.88
2023-03-07T20:12:10.051Z,48.50
2023-03-07T20:17:13.638Z,43.92
2023-03-07T20:22:17.530Z,39.50
2023-03-07T20:27:23.410Z,32.83
2023-03-07T20:32:26.419Z,35.80
2023-03-07T20:37:32.323Z,31.05
2023-03-07T20:42:36.519Z,28.27
2023-03-07T20:47:39.384Z,25.90
2023-03-07T20:52:42.254Z,28.35
2023-03-07T20:57:46.434Z,27.67
2023-03-07T21:02:56.875Z,24.27
2023-03-07T21:08:09.820Z,21.02
2023-03-07T21:13:14.021Z,20.55
2023-03-07T21:18:16.868Z,21.63
2023-03-07T21:23:20.308Z,22.58
2023-03-07T21:28:24.690Z,20.40
2023-03-07T21:33:27.876Z,17.92
2023-03-07T21:38:31.230Z,16.05
2023-03-07T21:43:35.515Z,17.23
2023-03-07T21:48:38.811Z,15.65
2023-03-07T21:53:41.914Z,15.82
2023-03-07T21:58:48.862Z,15.02
2023-03-07T22:03:53.371Z,15.57
2023-03-07T22:08:56.315Z,16.42
2023-03-07T22:14:00.471Z,13.23
2023-03-07T22:19:03.350Z,12.80
2023-03-07T22:24:06.534Z,14.40
2023-03-07T22:29:10.701Z,10.57
2023-03-07T22:34:13.535Z,11.75
2023-03-07T22:39:16.377Z,12.38
2023-03-07T22:44:20.697Z,11.75
2023-03-07T22:49:23.568Z,9.60
2023-03-07T22:54:26.691Z,13.20
2023-03-07T22:59:30.847Z,11.35
2023-03-07T23:04:33.757Z,11.15
2023-03-07T23:09:36.601Z,9.32
2023-03-07T23:14:40.760Z,9.85
2023-03-07T23:19:43.595Z,9.52
2023-03-07T23:24:46.553Z,9.02
2023-03-07T23:29:50.745Z,9.57
2023-03-07T23:34:53.786Z,8.18
2023-03-07T23:39:58.380Z,8.35
2023-03-07T23:45:02.630Z,9.23
2023-03-07T23:50:06.589Z,8.15
2023-03-07T23:55:10.492Z,7.65
